8FV YSPT-YCDR

Flight info

Callsign 8FV
Flight time 0h 27m
Altitude 8000
Route BN
Aircraft K100/L-SBDGRY/S

Departure

Time 2026-04-29 11:00
Airport Southport Airport (YSPT)

Arrival

Time 2026-04-29 11:28
Airport Caloundra Airport (YCDR)
Time Latitude Longitude Altitude Speed Heading
2026-04-29 10:46 -27.92469 153.37051 11 ft 0 kts 115°
2026-04-29 10:56 -27.92469 153.37053 11 ft 1 kts 65°
2026-04-29 10:56 -27.92468 153.37054 3 ft 0 kts 28°
2026-04-29 10:57 -27.92466 153.37054 3 ft 1 kts 12°
2026-04-29 10:57 -27.92432 153.37064 3 ft 10 kts 10°
2026-04-29 10:57 -27.92388 153.37040 3 ft 7 kts 23°
2026-04-29 10:58 -27.92281 153.37096 5 ft 26 kts 26°
2026-04-29 10:58 -27.92099 153.37193 5 ft 32 kts 25°
2026-04-29 10:58 -27.91888 153.37302 6 ft 28 kts 22°
2026-04-29 10:58 -27.91852 153.37323 5 ft 4 kts 201°
2026-04-29 10:59 -27.91857 153.37320 5 ft 0 kts 204°
2026-04-29 10:59 -27.91872 153.37312 5 ft 21 kts 205°
2026-04-29 11:00 -27.92231 153.37127 84 ft 80 kts 207°
2026-04-29 11:00 -27.92764 153.36815 453 ft 85 kts 207°
2026-04-29 11:00 -27.93306 153.36524 773 ft 93 kts 186°
2026-04-29 11:00 -27.93684 153.36713 1007 ft 96 kts 130°
2026-04-29 11:01 -27.93735 153.37678 1637 ft 94 kts 80°
2026-04-29 11:01 -27.93112 153.37927 2021 ft 127 kts 333°
2026-04-29 11:01 -27.92477 153.37227 2454 ft 128 kts 337°
2026-04-29 11:01 -27.91662 153.36895 2933 ft 127 kts 349°
2026-04-29 11:02 -27.90790 153.36499 3281 ft 138 kts 346°
2026-04-29 11:02 -27.89923 153.36084 3778 ft 134 kts 345°
2026-04-29 11:02 -27.89056 153.35667 4214 ft 137 kts 346°
2026-04-29 11:02 -27.88471 153.35391 4533 ft 137 kts 346°
2026-04-29 11:03 -27.87585 153.34970 5002 ft 139 kts 345°
2026-04-29 11:03 -27.86690 153.34546 5481 ft 139 kts 346°
2026-04-29 11:03 -27.85516 153.33984 6071 ft 139 kts 345°
2026-04-29 11:03 -27.84620 153.33558 6522 ft 140 kts 345°
2026-04-29 11:04 -27.84014 153.33269 6808 ft 139 kts 345°
2026-04-29 11:04 -27.82824 153.32704 7373 ft 140 kts 345°
2026-04-29 11:04 -27.82228 153.32425 7672 ft 140 kts 345°
2026-04-29 11:04 -27.81312 153.31998 7987 ft 153 kts 345°
2026-04-29 11:05 -27.80245 153.31509 7989 ft 175 kts 342°
2026-04-29 11:05 -27.79088 153.30955 7996 ft 185 kts 342°
2026-04-29 11:05 -27.77893 153.30381 7997 ft 188 kts 342°
2026-04-29 11:05 -27.76686 153.29804 7998 ft 189 kts 342°
2026-04-29 11:06 -27.75473 153.29229 8001 ft 189 kts 342°
2026-04-29 11:06 -27.74259 153.28655 8002 ft 189 kts 342°
2026-04-29 11:06 -27.73044 153.28077 8001 ft 190 kts 342°
2026-04-29 11:06 -27.71842 153.27509 8001 ft 190 kts 342°
2026-04-29 11:07 -27.70622 153.26933 8000 ft 190 kts 342°
2026-04-29 11:07 -27.69402 153.26351 8001 ft 190 kts 342°
2026-04-29 11:07 -27.68180 153.25774 8001 ft 190 kts 342°
2026-04-29 11:07 -27.66960 153.25199 8000 ft 190 kts 342°
2026-04-29 11:08 -27.65740 153.24622 7999 ft 191 kts 342°
2026-04-29 11:08 -27.64516 153.24046 8000 ft 191 kts 342°
2026-04-29 11:08 -27.63295 153.23471 8000 ft 190 kts 342°
2026-04-29 11:08 -27.62074 153.22895 8000 ft 190 kts 342°
2026-04-29 11:09 -27.60852 153.22319 7997 ft 190 kts 342°
2026-04-29 11:09 -27.59648 153.21749 7997 ft 190 kts 342°
2026-04-29 11:09 -27.58429 153.21170 7996 ft 190 kts 342°
2026-04-29 11:09 -27.57211 153.20595 7996 ft 190 kts 342°
2026-04-29 11:10 -27.55992 153.20020 7992 ft 190 kts 342°
2026-04-29 11:10 -27.54774 153.19444 7990 ft 190 kts 342°
2026-04-29 11:10 -27.53558 153.18870 7988 ft 189 kts 342°
2026-04-29 11:10 -27.52343 153.18299 7989 ft 189 kts 342°
2026-04-29 11:11 -27.51126 153.17729 7988 ft 189 kts 342°
2026-04-29 11:11 -27.49911 153.17159 7987 ft 189 kts 342°
2026-04-29 11:11 -27.48699 153.16587 7991 ft 189 kts 342°
2026-04-29 11:11 -27.47501 153.16021 7989 ft 189 kts 342°
2026-04-29 11:12 -27.46288 153.15452 7989 ft 189 kts 342°
2026-04-29 11:12 -27.45077 153.14881 7990 ft 188 kts 342°
2026-04-29 11:12 -27.43867 153.14312 7989 ft 189 kts 342°
2026-04-29 11:12 -27.42654 153.13741 7989 ft 189 kts 342°
2026-04-29 11:13 -27.41441 153.13172 7998 ft 189 kts 342°
2026-04-29 11:13 -27.40230 153.12605 7997 ft 188 kts 342°
2026-04-29 11:13 -27.39023 153.12033 7997 ft 188 kts 342°
2026-04-29 11:13 -27.37780 153.11724 7998 ft 180 kts
2026-04-29 11:14 -27.36547 153.11719 7996 ft 180 kts
2026-04-29 11:14 -27.35291 153.11688 8006 ft 181 kts
2026-04-29 11:14 -27.34034 153.11655 8007 ft 181 kts
2026-04-29 11:14 -27.32775 153.11626 8006 ft 181 kts
2026-04-29 11:15 -27.31514 153.11600 8006 ft 182 kts
2026-04-29 11:15 -27.30250 153.11574 8005 ft 181 kts
2026-04-29 11:15 -27.28989 153.11546 8006 ft 182 kts
2026-04-29 11:15 -27.27723 153.11518 8005 ft 182 kts
2026-04-29 11:16 -27.26461 153.11488 8005 ft 182 kts
2026-04-29 11:16 -27.25214 153.11463 8004 ft 182 kts
2026-04-29 11:16 -27.23951 153.11439 8004 ft 181 kts
2026-04-29 11:16 -27.22690 153.11414 8004 ft 182 kts
2026-04-29 11:17 -27.21426 153.11386 8004 ft 182 kts
2026-04-29 11:17 -27.20162 153.11359 8004 ft 182 kts
2026-04-29 11:17 -27.18897 153.11332 8001 ft 182 kts
2026-04-29 11:17 -27.17634 153.11303 8001 ft 182 kts
2026-04-29 11:18 -27.16371 153.11276 7997 ft 182 kts
2026-04-29 11:18 -27.15107 153.11247 7996 ft 182 kts
2026-04-29 11:18 -27.13861 153.11220 7995 ft 181 kts
2026-04-29 11:18 -27.12600 153.11192 7995 ft 181 kts
2026-04-29 11:19 -27.11339 153.11165 7998 ft 181 kts
2026-04-29 11:19 -27.10078 153.11141 7998 ft 181 kts
2026-04-29 11:19 -27.08809 153.11117 7999 ft 184 kts
2026-04-29 11:19 -27.07519 153.11089 7995 ft 186 kts
2026-04-29 11:20 -27.06221 153.11061 7995 ft 187 kts
2026-04-29 11:20 -27.04933 153.11033 7996 ft 188 kts
2026-04-29 11:20 -27.03627 153.11002 7995 ft 188 kts
2026-04-29 11:20 -27.02321 153.10971 7995 ft 188 kts
2026-04-29 11:21 -27.01014 153.10946 7979 ft 189 kts
2026-04-29 11:21 -26.99669 153.10924 7763 ft 199 kts
2026-04-29 11:21 -26.98255 153.10894 7319 ft 203 kts
2026-04-29 11:21 -26.96868 153.10857 6835 ft 197 kts
2026-04-29 11:22 -26.95506 153.10826 6336 ft 195 kts
2026-04-29 11:22 -26.94151 153.10798 5840 ft 195 kts
2026-04-29 11:22 -26.92796 153.10771 5282 ft 196 kts
2026-04-29 11:22 -26.91469 153.10741 5006 ft 186 kts
2026-04-29 11:23 -26.90191 153.10708 5009 ft 182 kts
2026-04-29 11:23 -26.88925 153.10684 5008 ft 181 kts
2026-04-29 11:23 -26.87640 153.10662 4850 ft 188 kts
2026-04-29 11:23 -26.86324 153.10637 4613 ft 192 kts
2026-04-29 11:24 -26.84934 153.10608 3998 ft 202 kts
2026-04-29 11:24 -26.83623 153.10569 3372 ft 178 kts
2026-04-29 11:24 -26.82431 153.10537 2747 ft 171 kts
2026-04-29 11:24 -26.81254 153.10515 2124 ft 168 kts
2026-04-29 11:25 -26.80107 153.10584 1494 ft 160 kts 24°
2026-04-29 11:25 -26.79337 153.11325 1011 ft 135 kts 74°
2026-04-29 11:25 -26.79458 153.12164 1001 ft 108 kts 137°
2026-04-29 11:25 -26.80193 153.12275 996 ft 118 kts 193°
2026-04-29 11:26 -26.80627 153.10747 839 ft 141 kts 334°
2026-04-29 11:26 -26.79810 153.10220 976 ft 130 kts 324°
2026-04-29 11:26 -26.79618 153.09310 886 ft 126 kts 237°
2026-04-29 11:27 -26.80210 153.08907 635 ft 92 kts 171°
2026-04-29 11:27 -26.80725 153.09124 522 ft 77 kts 134°
2026-04-29 11:27 -26.80725 153.09712 286 ft 88 kts 71°
2026-04-29 11:27 -26.80479 153.10249 41 ft 69 kts 62°
2026-04-29 11:28 -26.80278 153.10593 28 ft 43 kts 57°
2026-04-29 11:28 -26.80129 153.10845 36 ft 33 kts 56°
2026-04-29 11:28 -26.80028 153.10894 38 ft 19 kts 323°
2026-04-29 11:28 -26.80008 153.10849 37 ft 5 kts 330°
2026-04-29 11:29 -26.79997 153.10840 37 ft 0 kts 328°